sensor_id;sensor_type;location;lat;lon;timestamp;pressure;altitude;pressure_sealevel;temperature;humidity
65832;BME280;52593;42.648;23.332;2023-03-21T00:01:21;94383.66;;;9.27;58.10
65832;BME280;52593;42.648;23.332;2023-03-21T00:03:46;94390.94;;;9.33;57.95
65832;BME280;52593;42.648;23.332;2023-03-21T00:06:13;94380.28;;;9.33;58.33
65832;BME280;52593;42.648;23.332;2023-03-21T00:08:39;94384.25;;;9.37;58.33
65832;BME280;52593;42.648;23.332;2023-03-21T00:11:07;94380.34;;;9.25;58.25
65832;BME280;52593;42.648;23.332;2023-03-21T00:13:33;94388.19;;;9.26;58.41
65832;BME280;52593;42.648;23.332;2023-03-21T00:16:11;94362.44;;;9.10;58.13
65832;BME280;52593;42.648;23.332;2023-03-21T00:18:49;94382.97;;;9.10;58.60
65832;BME280;52593;42.648;23.332;2023-03-21T00:21:21;94393.75;;;9.17;59.49
65832;BME280;52593;42.648;23.332;2023-03-21T00:23:53;94384.78;;;9.09;59.57
65832;BME280;52593;42.648;23.332;2023-03-21T00:26:19;94390.66;;;9.05;59.73
65832;BME280;52593;42.648;23.332;2023-03-21T00:28:45;94373.53;;;8.99;59.73
65832;BME280;52593;42.648;23.332;2023-03-21T00:31:10;94386.69;;;9.01;60.05
65832;BME280;52593;42.648;23.332;2023-03-21T00:33:36;94394.53;;;9.02;60.04
65832;BME280;52593;42.648;23.332;2023-03-21T00:36:04;94393.69;;;9.02;60.09
65832;BME280;52593;42.648;23.332;2023-03-21T00:38:29;94397.31;;;9.09;59.74
65832;BME280;52593;42.648;23.332;2023-03-21T00:40:55;94390.59;;;8.90;61.01
65832;BME280;52593;42.648;23.332;2023-03-21T00:43:20;94393.81;;;8.85;60.58
65832;BME280;52593;42.648;23.332;2023-03-21T00:45:55;94391.19;;;8.77;61.27
65832;BME280;52593;42.648;23.332;2023-03-21T00:48:22;94385.72;;;8.70;61.19
65832;BME280;52593;42.648;23.332;2023-03-21T00:50:50;94387.06;;;8.66;61.90
65832;BME280;52593;42.648;23.332;2023-03-21T00:53:16;94387.06;;;8.66;62.54
65832;BME280;52593;42.648;23.332;2023-03-21T00:55:42;94388.28;;;8.64;62.38
65832;BME280;52593;42.648;23.332;2023-03-21T00:58:07;94377.00;;;8.53;63.93
65832;BME280;52593;42.648;23.332;2023-03-21T01:00:33;94386.50;;;8.48;64.21
65832;BME280;52593;42.648;23.332;2023-03-21T01:03:02;94381.72;;;8.35;64.40
65832;BME280;52593;42.648;23.332;2023-03-21T01:05:32;94381.91;;;8.33;64.53
65832;BME280;52593;42.648;23.332;2023-03-21T01:08:17;94377.25;;;8.27;64.77
65832;BME280;52593;42.648;23.332;2023-03-21T01:10:45;94375.13;;;8.14;65.88
65832;BME280;52593;42.648;23.332;2023-03-21T01:13:13;94376.50;;;8.02;67.22
65832;BME280;52593;42.648;23.332;2023-03-21T01:15:47;94381.50;;;8.05;66.80
65832;BME280;52593;42.648;23.332;2023-03-21T01:18:14;94371.34;;;8.00;66.47
65832;BME280;52593;42.648;23.332;2023-03-21T01:20:41;94375.03;;;7.99;66.62
65832;BME280;52593;42.648;23.332;2023-03-21T01:23:08;94361.41;;;7.86;67.96
65832;BME280;52593;42.648;23.332;2023-03-21T01:25:33;94350.97;;;7.68;67.90
65832;BME280;52593;42.648;23.332;2023-03-21T01:27:59;94379.06;;;7.79;68.11
65832;BME280;52593;42.648;23.332;2023-03-21T01:30:25;94366.63;;;7.71;68.37
65832;BME280;52593;42.648;23.332;2023-03-21T01:32:50;94376.78;;;7.67;69.07
65832;BME280;52593;42.648;23.332;2023-03-21T01:35:16;94383.94;;;7.67;68.58
65832;BME280;52593;42.648;23.332;2023-03-21T01:37:41;94381.59;;;7.72;68.43
65832;BME280;52593;42.648;23.332;2023-03-21T01:40:09;94375.25;;;7.73;68.36
65832;BME280;52593;42.648;23.332;2023-03-21T01:42:37;94379.09;;;7.71;67.85
65832;BME280;52593;42.648;23.332;2023-03-21T01:45:56;94376.94;;;7.74;67.74
65832;BME280;52593;42.648;23.332;2023-03-21T01:47:50;94368.63;;;7.69;67.08
65832;BME280;52593;42.648;23.332;2023-03-21T01:50:16;94370.78;;;7.65;67.45
65832;BME280;52593;42.648;23.332;2023-03-21T01:52:46;94368.13;;;7.74;66.82
65832;BME280;52593;42.648;23.332;2023-03-21T01:55:14;94369.25;;;7.79;66.57
65832;BME280;52593;42.648;23.332;2023-03-21T01:57:46;94360.91;;;7.82;66.92
65832;BME280;52593;42.648;23.332;2023-03-21T02:00:14;94362.09;;;7.72;68.08
65832;BME280;52593;42.648;23.332;2023-03-21T02:02:43;94374.59;;;7.71;68.41
65832;BME280;52593;42.648;23.332;2023-03-21T02:05:23;94366.13;;;7.59;68.81
65832;BME280;52593;42.648;23.332;2023-03-21T02:07:51;94372.31;;;7.52;69.38
65832;BME280;52593;42.648;23.332;2023-03-21T02:10:17;94370.31;;;7.54;68.80
65832;BME280;52593;42.648;23.332;2023-03-21T02:12:43;94367.50;;;7.55;69.01
65832;BME280;52593;42.648;23.332;2023-03-21T02:15:09;94363.63;;;7.58;68.36
65832;BME280;52593;42.648;23.332;2023-03-21T02:17:55;94359.50;;;7.47;69.50
65832;BME280;52593;42.648;23.332;2023-03-21T02:26:33;94359.38;;;7.24;70.72
65832;BME280;52593;42.648;23.332;2023-03-21T02:44:50;94350.72;;;7.05;71.80
65832;BME280;52593;42.648;23.332;2023-03-21T02:47:27;94343.28;;;6.92;71.42
65832;BME280;52593;42.648;23.332;2023-03-21T02:50:14;94346.75;;;6.93;72.49
65832;BME280;52593;42.648;23.332;2023-03-21T02:52:45;94345.09;;;6.84;73.37
65832;BME280;52593;42.648;23.332;2023-03-21T02:55:15;94351.06;;;6.86;73.05
65832;BME280;52593;42.648;23.332;2023-03-21T02:57:43;94339.75;;;6.67;72.84
65832;BME280;52593;42.648;23.332;2023-03-21T03:00:14;94341.25;;;6.78;73.48
65832;BME280;52593;42.648;23.332;2023-03-21T03:02:41;94338.44;;;6.79;72.62
65832;BME280;52593;42.648;23.332;2023-03-21T03:05:27;94354.56;;;6.70;73.08
65832;BME280;52593;42.648;23.332;2023-03-21T03:14:13;94358.00;;;6.46;74.33
65832;BME280;52593;42.648;23.332;2023-03-21T03:19:25;94356.69;;;6.50;74.80
65832;BME280;52593;42.648;23.332;2023-03-21T03:22:05;94358.00;;;6.54;74.30
65832;BME280;52593;42.648;23.332;2023-03-21T03:24:59;94361.66;;;6.53;74.41
65832;BME280;52593;42.648;23.332;2023-03-21T03:27:27;94360.97;;;6.51;74.09
65832;BME280;52593;42.648;23.332;2023-03-21T03:29:57;94359.13;;;6.43;73.41
65832;BME280;52593;42.648;23.332;2023-03-21T03:32:27;94354.84;;;6.42;73.71
65832;BME280;52593;42.648;23.332;2023-03-21T03:34:54;94362.28;;;6.38;72.62
65832;BME280;52593;42.648;23.332;2023-03-21T03:37:24;94356.13;;;6.30;72.59
65832;BME280;52593;42.648;23.332;2023-03-21T03:39:58;94357.94;;;6.29;72.98
65832;BME280;52593;42.648;23.332;2023-03-21T03:42:37;94358.09;;;6.19;73.94
65832;BME280;52593;42.648;23.332;2023-03-21T03:45:07;94359.94;;;6.19;73.18
65832;BME280;52593;42.648;23.332;2023-03-21T03:50:11;94354.63;;;6.19;72.78
65832;BME280;52593;42.648;23.332;2023-03-21T03:52:46;94352.63;;;6.21;72.23
65832;BME280;52593;42.648;23.332;2023-03-21T03:55:15;94349.47;;;6.34;71.65
65832;BME280;52593;42.648;23.332;2023-03-21T03:57:42;94353.81;;;6.43;71.53
65832;BME280;52593;42.648;23.332;2023-03-21T04:00:10;94352.03;;;6.43;72.42
65832;BME280;52593;42.648;23.332;2023-03-21T04:02:37;94340.22;;;6.38;71.98
65832;BME280;52593;42.648;23.332;2023-03-21T04:05:03;94355.31;;;6.37;73.02
65832;BME280;52593;42.648;23.332;2023-03-21T04:07:30;94355.66;;;6.34;73.33
65832;BME280;52593;42.648;23.332;2023-03-21T04:09:55;94355.44;;;6.19;73.56
65832;BME280;52593;42.648;23.332;2023-03-21T04:12:21;94356.75;;;6.15;73.55
65832;BME280;52593;42.648;23.332;2023-03-21T04:14:47;94355.09;;;6.14;73.61
65832;BME280;52593;42.648;23.332;2023-03-21T04:17:13;94350.91;;;6.03;74.47
65832;BME280;52593;42.648;23.332;2023-03-21T04:19:38;94341.88;;;5.96;75.36
65832;BME280;52593;42.648;23.332;2023-03-21T04:22:04;94347.88;;;5.98;75.49
65832;BME280;52593;42.648;23.332;2023-03-21T04:24:30;94335.91;;;5.94;75.45
65832;BME280;52593;42.648;23.332;2023-03-21T04:26:58;94340.50;;;5.84;75.42
65832;BME280;52593;42.648;23.332;2023-03-21T04:29:24;94340.66;;;5.82;75.74
65832;BME280;52593;42.648;23.332;2023-03-21T04:31:50;94341.88;;;5.96;75.56
65832;BME280;52593;42.648;23.332;2023-03-21T04:34:15;94334.25;;;5.93;75.39
65832;BME280;52593;42.648;23.332;2023-03-21T04:36:41;94340.69;;;5.90;75.75
65832;BME280;52593;42.648;23.332;2023-03-21T04:39:14;94346.53;;;5.94;75.67
65832;BME280;52593;42.648;23.332;2023-03-21T04:41:41;94344.69;;;5.95;75.38
65832;BME280;52593;42.648;23.332;2023-03-21T04:44:07;94355.22;;;6.04;75.48
65832;BME280;52593;42.648;23.332;2023-03-21T04:46:34;94341.59;;;5.99;75.62
65832;BME280;52593;42.648;23.332;2023-03-21T04:49:00;94350.75;;;6.05;75.79
65832;BME280;52593;42.648;23.332;2023-03-21T04:51:25;94343.19;;;5.92;75.72
65832;BME280;52593;42.648;23.332;2023-03-21T04:53:51;94348.50;;;5.92;76.03
65832;BME280;52593;42.648;23.332;2023-03-21T04:56:17;94349.19;;;5.94;76.24
65832;BME280;52593;42.648;23.332;2023-03-21T04:58:42;94358.59;;;6.15;75.11
65832;BME280;52593;42.648;23.332;2023-03-21T05:01:08;94359.22;;;6.09;74.81
65832;BME280;52593;42.648;23.332;2023-03-21T05:03:34;94358.25;;;6.10;75.66
65832;BME280;52593;42.648;23.332;2023-03-21T05:06:07;94367.38;;;6.15;75.63
65832;BME280;52593;42.648;23.332;2023-03-21T05:08:34;94351.91;;;6.02;76.34
65832;BME280;52593;42.648;23.332;2023-03-21T05:11:00;94357.22;;;6.02;76.96
65832;BME280;52593;42.648;23.332;2023-03-21T05:13:26;94361.56;;;6.12;76.84
65832;BME280;52593;42.648;23.332;2023-03-21T05:15:51;94354.78;;;6.17;76.10
65832;BME280;52593;42.648;23.332;2023-03-21T05:18:17;94361.25;;;6.23;76.22
65832;BME280;52593;42.648;23.332;2023-03-21T05:20:50;94370.09;;;6.32;75.64
65832;BME280;52593;42.648;23.332;2023-03-21T05:23:19;94367.44;;;6.40;75.70
65832;BME280;52593;42.648;23.332;2023-03-21T05:25:45;94363.78;;;6.41;75.47
65832;BME280;52593;42.648;23.332;2023-03-21T05:28:10;94372.63;;;6.50;75.74
65832;BME280;52593;42.648;23.332;2023-03-21T05:30:36;94358.00;;;6.54;75.45
65832;BME280;52593;42.648;23.332;2023-03-21T05:33:02;94369.31;;;6.64;75.75
65832;BME280;52593;42.648;23.332;2023-03-21T05:35:27;94370.50;;;6.62;76.05
65832;BME280;52593;42.648;23.332;2023-03-21T05:37:53;94368.16;;;6.67;75.39
65832;BME280;52593;42.648;23.332;2023-03-21T05:40:18;94355.56;;;6.77;75.42
65832;BME280;52593;42.648;23.332;2023-03-21T05:42:45;94365.19;;;6.78;75.67
65832;BME280;52593;42.648;23.332;2023-03-21T05:45:11;94358.88;;;6.87;75.30
65832;BME280;52593;42.648;23.332;2023-03-21T05:47:36;94363.72;;;7.00;74.90
65832;BME280;52593;42.648;23.332;2023-03-21T05:50:02;94359.72;;;7.04;75.63
65832;BME280;52593;42.648;23.332;2023-03-21T05:52:27;94354.88;;;7.16;76.20
65832;BME280;52593;42.648;23.332;2023-03-21T05:54:53;94356.72;;;7.16;75.43
65832;BME280;52593;42.648;23.332;2023-03-21T05:57:19;94354.56;;;7.27;75.42
65832;BME280;52593;42.648;23.332;2023-03-21T05:59:45;94340.38;;;7.43;74.16
65832;BME280;52593;42.648;23.332;2023-03-21T06:02:10;94340.03;;;7.63;72.58
65832;BME280;52593;42.648;23.332;2023-03-21T06:04:36;94334.78;;;7.78;71.79
65832;BME280;52593;42.648;23.332;2023-03-21T06:07:02;94330.09;;;7.88;70.86
65832;BME280;52593;42.648;23.332;2023-03-21T06:09:46;94339.53;;;8.07;69.75
65832;BME280;52593;42.648;23.332;2023-03-21T06:12:12;94330.16;;;8.19;68.87
65832;BME280;52593;42.648;23.332;2023-03-21T06:14:38;94324.88;;;8.34;68.52
65832;BME280;52593;42.648;23.332;2023-03-21T06:17:03;94320.31;;;8.51;67.75
65832;BME280;52593;42.648;23.332;2023-03-21T06:19:30;94330.41;;;8.64;67.00
65832;BME280;52593;42.648;23.332;2023-03-21T06:21:56;94331.47;;;8.78;64.90
65832;BME280;52593;42.648;23.332;2023-03-21T06:24:21;94322.34;;;8.96;64.76
65832;BME280;52593;42.648;23.332;2023-03-21T06:26:46;94318.09;;;9.24;64.00
65832;BME280;52593;42.648;23.332;2023-03-21T06:29:12;94311.97;;;9.39;63.59
65832;BME280;52593;42.648;23.332;2023-03-21T06:31:38;94311.50;;;9.50;63.63
65832;BME280;52593;42.648;23.332;2023-03-21T06:34:03;94324.78;;;9.73;61.28
65832;BME280;52593;42.648;23.332;2023-03-21T06:36:28;94302.59;;;9.73;60.58
65832;BME280;52593;42.648;23.332;2023-03-21T06:38:54;94314.38;;;9.93;59.05
65832;BME280;52593;42.648;23.332;2023-03-21T06:41:20;94313.91;;;9.90;59.10
65832;BME280;52593;42.648;23.332;2023-03-21T06:43:45;94320.81;;;9.99;59.03
65832;BME280;52593;42.648;23.332;2023-03-21T06:46:11;94322.81;;;10.12;59.19
65832;BME280;52593;42.648;23.332;2023-03-21T06:48:36;94325.31;;;10.13;59.31
65832;BME280;52593;42.648;23.332;2023-03-21T06:51:03;94328.97;;;10.27;57.64
65832;BME280;52593;42.648;23.332;2023-03-21T06:53:29;94332.94;;;10.31;58.50
65832;BME280;52593;42.648;23.332;2023-03-21T06:55:55;94325.75;;;10.32;57.76
65832;BME280;52593;42.648;23.332;2023-03-21T06:58:21;94328.06;;;10.35;57.60
65832;BME280;52593;42.648;23.332;2023-03-21T07:00:47;94335.34;;;10.41;57.47
65832;BME280;52593;42.648;23.332;2023-03-21T07:03:13;94334.28;;;10.35;57.60
65832;BME280;52593;42.648;23.332;2023-03-21T07:05:39;94329.00;;;10.42;56.92
65832;BME280;52593;42.648;23.332;2023-03-21T07:08:06;94346.94;;;10.63;56.68
65832;BME280;52593;42.648;23.332;2023-03-21T07:10:37;94342.22;;;10.65;56.78
65832;BME280;52593;42.648;23.332;2023-03-21T07:13:03;94335.03;;;10.66;55.99
65832;BME280;52593;42.648;23.332;2023-03-21T07:15:28;94339.06;;;10.77;55.76
65832;BME280;52593;42.648;23.332;2023-03-21T07:17:53;94338.03;;;10.78;54.55
65832;BME280;52593;42.648;23.332;2023-03-21T07:20:20;94341.16;;;10.81;54.34
65832;BME280;52593;42.648;23.332;2023-03-21T07:22:45;94353.63;;;10.74;53.95
65832;BME280;52593;42.648;23.332;2023-03-21T07:25:11;94347.47;;;10.74;54.12
65832;BME280;52593;42.648;23.332;2023-03-21T07:27:36;94342.03;;;10.88;54.08
65832;BME280;52593;42.648;23.332;2023-03-21T07:30:03;94344.81;;;10.95;54.15
65832;BME280;52593;42.648;23.332;2023-03-21T07:32:32;94340.50;;;11.01;54.47
65832;BME280;52593;42.648;23.332;2023-03-21T07:34:58;94341.03;;;11.11;54.14
65832;BME280;52593;42.648;23.332;2023-03-21T07:37:24;94334.00;;;11.10;54.35
65832;BME280;52593;42.648;23.332;2023-03-21T07:39:49;94333.03;;;11.39;53.31
65832;BME280;52593;42.648;23.332;2023-03-21T07:42:16;94327.09;;;11.44;52.19
65832;BME280;52593;42.648;23.332;2023-03-21T07:44:41;94329.63;;;11.52;52.25
65832;BME280;52593;42.648;23.332;2023-03-21T07:47:07;94327.78;;;11.53;52.17
65832;BME280;52593;42.648;23.332;2023-03-21T07:49:32;94337.09;;;11.57;52.13
65832;BME280;52593;42.648;23.332;2023-03-21T07:51:58;94335.91;;;11.66;52.33
65832;BME280;52593;42.648;23.332;2023-03-21T07:54:24;94338.09;;;11.84;52.29
65832;BME280;52593;42.648;23.332;2023-03-21T07:56:49;94337.38;;;11.69;51.67
65832;BME280;52593;42.648;23.332;2023-03-21T07:59:15;94344.44;;;11.76;52.35
65832;BME280;52593;42.648;23.332;2023-03-21T08:01:40;94326.53;;;11.84;50.81
65832;BME280;52593;42.648;23.332;2023-03-21T08:04:05;94339.44;;;11.95;50.07
65832;BME280;52593;42.648;23.332;2023-03-21T08:06:32;94334.69;;;11.97;49.69
65832;BME280;52593;42.648;23.332;2023-03-21T08:08:58;94332.28;;;12.02;50.05
65832;BME280;52593;42.648;23.332;2023-03-21T08:11:23;94337.84;;;12.01;49.49
65832;BME280;52593;42.648;23.332;2023-03-21T08:13:49;94343.00;;;12.02;49.65
65832;BME280;52593;42.648;23.332;2023-03-21T08:16:15;94332.41;;;11.94;49.73
65832;BME280;52593;42.648;23.332;2023-03-21T08:18:41;94339.44;;;11.95;50.01
65832;BME280;52593;42.648;23.332;2023-03-21T08:21:07;94330.44;;;12.09;49.48
65832;BME280;52593;42.648;23.332;2023-03-21T08:23:32;94328.00;;;12.15;49.32
65832;BME280;52593;42.648;23.332;2023-03-21T08:25:58;94327.44;;;12.26;49.22
65832;BME280;52593;42.648;23.332;2023-03-21T08:28:24;94312.75;;;12.22;49.63
65832;BME280;52593;42.648;23.332;2023-03-21T08:30:49;94320.88;;;12.42;49.13
65832;BME280;52593;42.648;23.332;2023-03-21T08:33:15;94319.69;;;12.51;48.61
65832;BME280;52593;42.648;23.332;2023-03-21T08:35:43;94327.56;;;12.59;49.01
65832;BME280;52593;42.648;23.332;2023-03-21T08:38:09;94324.94;;;12.73;47.84
65832;BME280;52593;42.648;23.332;2023-03-21T08:40:34;94318.25;;;12.55;47.47
65832;BME280;52593;42.648;23.332;2023-03-21T08:43:00;94325.97;;;12.78;47.69
65832;BME280;52593;42.648;23.332;2023-03-21T08:45:25;94333.41;;;12.76;46.88
65832;BME280;52593;42.648;23.332;2023-03-21T08:47:52;94322.69;;;12.90;45.74
65832;BME280;52593;42.648;23.332;2023-03-21T08:50:20;94333.25;;;12.98;45.65
65832;BME280;52593;42.648;23.332;2023-03-21T08:52:47;94320.84;;;12.97;46.27
65832;BME280;52593;42.648;23.332;2023-03-21T08:55:14;94317.53;;;12.95;45.54
65832;BME280;52593;42.648;23.332;2023-03-21T08:57:40;94318.16;;;12.90;45.94
65832;BME280;52593;42.648;23.332;2023-03-21T09:00:07;94310.91;;;12.91;46.53
65832;BME280;52593;42.648;23.332;2023-03-21T09:02:37;94308.63;;;12.88;46.88
65832;BME280;52593;42.648;23.332;2023-03-21T09:05:03;94314.44;;;12.98;46.54
65832;BME280;52593;42.648;23.332;2023-03-21T09:07:30;94322.09;;;12.94;45.97
65832;BME280;52593;42.648;23.332;2023-03-21T09:09:58;94317.50;;;12.75;46.73
65832;BME280;52593;42.648;23.332;2023-03-21T09:12:24;94302.22;;;12.82;45.98
65832;BME280;52593;42.648;23.332;2023-03-21T09:14:50;94314.59;;;12.83;46.17
65832;BME280;52593;42.648;23.332;2023-03-21T09:17:18;94312.16;;;12.95;47.03
65832;BME280;52593;42.648;23.332;2023-03-21T09:19:43;94310.97;;;13.17;46.17
65832;BME280;52593;42.648;23.332;2023-03-21T09:22:10;94296.94;;;13.35;45.48
65832;BME280;52593;42.648;23.332;2023-03-21T09:24:45;94285.56;;;13.47;44.51
65832;BME280;52593;42.648;23.332;2023-03-21T09:27:12;94287.03;;;13.49;44.48
65832;BME280;52593;42.648;23.332;2023-03-21T09:29:38;94281.63;;;13.43;43.97
65832;BME280;52593;42.648;23.332;2023-03-21T09:32:05;94278.97;;;13.49;44.60
65832;BME280;52593;42.648;23.332;2023-03-21T09:34:31;94285.53;;;13.67;44.00
65832;BME280;52593;42.648;23.332;2023-03-21T09:36:56;94279.94;;;13.82;43.63
65832;BME280;52593;42.648;23.332;2023-03-21T09:39:22;94275.91;;;14.11;42.88
65832;BME280;52593;42.648;23.332;2023-03-21T09:44:56;94256.91;;;13.99;42.82
65832;BME280;52593;42.648;23.332;2023-03-21T09:47:28;94255.25;;;14.05;42.44
65832;BME280;52593;42.648;23.332;2023-03-21T09:50:03;94260.66;;;13.98;43.07
65832;BME280;52593;42.648;23.332;2023-03-21T09:52:40;94257.50;;;14.08;43.87
65832;BME280;52593;42.648;23.332;2023-03-21T09:55:15;94254.19;;;14.13;42.41
65832;BME280;52593;42.648;23.332;2023-03-21T09:57:44;94255.75;;;14.34;42.13
65832;BME280;52593;42.648;23.332;2023-03-21T10:00:17;94260.25;;;14.47;41.67
65832;BME280;52593;42.648;23.332;2023-03-21T10:02:48;94257.81;;;14.32;41.79
65832;BME280;52593;42.648;23.332;2023-03-21T10:08:01;94249.53;;;14.33;42.68
65832;BME280;52593;42.648;23.332;2023-03-21T10:10:45;94239.06;;;14.63;42.07
65832;BME280;52593;42.648;23.332;2023-03-21T10:13:21;94233.69;;;14.63;41.17
65832;BME280;52593;42.648;23.332;2023-03-21T10:15:48;94236.44;;;14.89;41.36
65832;BME280;52593;42.648;23.332;2023-03-21T10:18:21;94223.50;;;14.97;40.53
65832;BME280;52593;42.648;23.332;2023-03-21T10:20:48;94220.28;;;15.14;40.74
65832;BME280;52593;42.648;23.332;2023-03-21T10:23:16;94225.19;;;15.24;40.85
65832;BME280;52593;42.648;23.332;2023-03-21T10:25:49;94223.56;;;15.41;40.38
65832;BME280;52593;42.648;23.332;2023-03-21T10:28:19;94219.22;;;15.40;41.13
65832;BME280;52593;42.648;23.332;2023-03-21T10:30:50;94217.97;;;15.61;39.99
65832;BME280;52593;42.648;23.332;2023-03-21T10:33:23;94216.41;;;15.54;41.75
65832;BME280;52593;42.648;23.332;2023-03-21T10:35:52;94218.66;;;15.75;39.11
65832;BME280;52593;42.648;23.332;2023-03-21T10:38:22;94227.44;;;15.70;38.66
65832;BME280;52593;42.648;23.332;2023-03-21T10:40:48;94230.34;;;15.69;38.99
65832;BME280;52593;42.648;23.332;2023-03-21T10:43:31;94228.63;;;15.56;40.22
65832;BME280;52593;42.648;23.332;2023-03-21T10:46:05;94228.88;;;15.48;39.86
65832;BME280;52593;42.648;23.332;2023-03-21T10:48:34;94225.97;;;15.49;39.01
65832;BME280;52593;42.648;23.332;2023-03-21T10:51:00;94237.94;;;15.79;38.82
65832;BME280;52593;42.648;23.332;2023-03-21T10:53:28;94224.69;;;15.77;39.78
65832;BME280;52593;42.648;23.332;2023-03-21T10:55:58;94215.13;;;15.56;39.37
65832;BME280;52593;42.648;23.332;2023-03-21T10:58:29;94216.66;;;15.70;39.46
65832;BME280;52593;42.648;23.332;2023-03-21T11:01:00;94209.53;;;15.58;39.27
65832;BME280;52593;42.648;23.332;2023-03-21T11:03:29;94211.97;;;15.41;39.71
65832;BME280;52593;42.648;23.332;2023-03-21T11:06:04;94196.59;;;15.41;39.58
65832;BME280;52593;42.648;23.332;2023-03-21T11:08:29;94207.94;;;15.25;39.77
65832;BME280;52593;42.648;23.332;2023-03-21T11:11:09;94207.06;;;15.31;39.56
65832;BME280;52593;42.648;23.332;2023-03-21T11:13:42;94208.97;;;15.49;39.24
65832;BME280;52593;42.648;23.332;2023-03-21T11:16:20;94197.59;;;15.47;39.06
65832;BME280;52593;42.648;23.332;2023-03-21T11:18:49;94209.41;;;15.46;39.07
65832;BME280;52593;42.648;23.332;2023-03-21T11:21:15;94198.06;;;15.62;38.47
65832;BME280;52593;42.648;23.332;2023-03-21T11:23:47;94192.59;;;15.69;38.05
65832;BME280;52593;42.648;23.332;2023-03-21T11:26:25;94188.13;;;16.00;37.61
65832;BME280;52593;42.648;23.332;2023-03-21T11:28:52;94189.22;;;16.29;37.21
65832;BME280;52593;42.648;23.332;2023-03-21T11:31:18;94176.16;;;16.26;37.06
65832;BME280;52593;42.648;23.332;2023-03-21T11:33:53;94169.44;;;16.17;37.19
65832;BME280;52593;42.648;23.332;2023-03-21T11:38:51;94161.94;;;16.19;37.61
65832;BME280;52593;42.648;23.332;2023-03-21T11:41:26;94166.28;;;16.20;36.58
65832;BME280;52593;42.648;23.332;2023-03-21T11:43:55;94168.59;;;16.35;36.63
65832;BME280;52593;42.648;23.332;2023-03-21T11:46:26;94158.63;;;16.17;38.07
65832;BME280;52593;42.648;23.332;2023-03-21T11:48:52;94157.38;;;16.19;37.34
65832;BME280;52593;42.648;23.332;2023-03-21T11:56:34;94152.66;;;16.15;36.77
65832;BME280;52593;42.648;23.332;2023-03-21T11:59:26;94160.44;;;16.23;37.23
65832;BME280;52593;42.648;23.332;2023-03-21T12:02:03;94157.59;;;16.18;35.64
65832;BME280;52593;42.648;23.332;2023-03-21T12:04:40;94144.44;;;16.10;35.31
65832;BME280;52593;42.648;23.332;2023-03-21T12:07:26;94140.88;;;16.09;35.92
65832;BME280;52593;42.648;23.332;2023-03-21T12:21:25;94129.78;;;16.17;35.85
65832;BME280;52593;42.648;23.332;2023-03-21T12:26:28;94135.94;;;16.06;35.36
65832;BME280;52593;42.648;23.332;2023-03-21T12:34:17;94117.91;;;16.07;35.60
65832;BME280;52593;42.648;23.332;2023-03-21T12:39:40;94112.22;;;15.96;37.72
65832;BME280;52593;42.648;23.332;2023-03-21T12:42:26;94109.94;;;16.12;36.46
65832;BME280;52593;42.648;23.332;2023-03-21T12:44:59;94111.72;;;16.18;36.03
65832;BME280;52593;42.648;23.332;2023-03-21T12:47:31;94115.66;;;16.03;36.27
65832;BME280;52593;42.648;23.332;2023-03-21T12:52:32;94103.47;;;16.13;35.82
65832;BME280;52593;42.648;23.332;2023-03-21T12:55:08;94103.66;;;15.99;36.98
65832;BME280;52593;42.648;23.332;2023-03-21T12:57:41;94099.50;;;15.85;36.97
65832;BME280;52593;42.648;23.332;2023-03-21T13:00:35;94097.06;;;15.95;36.53
65832;BME280;52593;42.648;23.332;2023-03-21T13:03:07;94095.00;;;16.09;36.79
65832;BME280;52593;42.648;23.332;2023-03-21T13:05:51;94089.84;;;16.08;36.11
65832;BME280;52593;42.648;23.332;2023-03-21T13:09:21;94087.34;;;15.94;36.58
65832;BME280;52593;42.648;23.332;2023-03-21T13:11:55;94086.13;;;15.90;36.55
65832;BME280;52593;42.648;23.332;2023-03-21T13:14:27;94077.31;;;15.83;36.40
65832;BME280;52593;42.648;23.332;2023-03-21T13:17:04;94076.75;;;15.74;36.91
65832;BME280;52593;42.648;23.332;2023-03-21T13:19:37;94075.19;;;15.66;37.71
65832;BME280;52593;42.648;23.332;2023-03-21T13:22:13;94076.25;;;15.65;37.94
65832;BME280;52593;42.648;23.332;2023-03-21T13:24:47;94077.75;;;15.61;37.51
65832;BME280;52593;42.648;23.332;2023-03-21T13:27:31;94082.47;;;15.66;37.96
65832;BME280;52593;42.648;23.332;2023-03-21T13:32:40;94069.34;;;15.69;37.48
65832;BME280;52593;42.648;23.332;2023-03-21T13:35:23;94060.44;;;15.69;38.18
65832;BME280;52593;42.648;23.332;2023-03-21T13:37:58;94073.56;;;15.65;39.93
65832;BME280;52593;42.648;23.332;2023-03-21T13:40:34;94063.81;;;15.64;39.77
65832;BME280;52593;42.648;23.332;2023-03-21T13:43:01;94063.06;;;15.57;40.51
65832;BME280;52593;42.648;23.332;2023-03-21T13:45:47;94061.44;;;15.56;40.67
65832;BME280;52593;42.648;23.332;2023-03-21T13:48:41;94057.84;;;15.62;39.25
65832;BME280;52593;42.648;23.332;2023-03-21T13:51:07;94052.50;;;15.56;40.45
65832;BME280;52593;42.648;23.332;2023-03-21T13:56:08;94048.63;;;15.51;40.20
65832;BME280;52593;42.648;23.332;2023-03-21T14:01:38;94052.72;;;15.54;39.91
65832;BME280;52593;42.648;23.332;2023-03-21T14:04:20;94052.97;;;15.52;39.86
65832;BME280;52593;42.648;23.332;2023-03-21T14:06:55;94052.25;;;15.45;40.26
65832;BME280;52593;42.648;23.332;2023-03-21T14:09:25;94048.03;;;15.31;40.95
65832;BME280;52593;42.648;23.332;2023-03-21T14:11:53;94049.91;;;15.12;44.37
65832;BME280;52593;42.648;23.332;2023-03-21T14:14:21;94044.34;;;15.07;43.57
65832;BME280;52593;42.648;23.332;2023-03-21T14:16:51;94053.66;;;15.11;42.32
65832;BME280;52593;42.648;23.332;2023-03-21T14:19:17;94049.75;;;15.07;42.33
65832;BME280;52593;42.648;23.332;2023-03-21T14:21:48;94048.69;;;15.08;42.32
65832;BME280;52593;42.648;23.332;2023-03-21T14:24:16;94045.69;;;14.97;43.31
65832;BME280;52593;42.648;23.332;2023-03-21T14:26:45;94043.38;;;14.83;44.88